sensor_id;sensor_type;location;lat;lon;timestamp;pressure;altitude;pressure_sealevel;temperature;humidity
10348;BME280;5220;43.192;23.284;2023-05-12T00:00:39;97203.06;;;14.10;100.00
10348;BME280;5220;43.192;23.284;2023-05-12T00:03:06;97196.59;;;14.14;100.00
10348;BME280;5220;43.192;23.284;2023-05-12T00:05:32;97189.75;;;13.60;100.00
10348;BME280;5220;43.192;23.284;2023-05-12T00:07:59;97187.75;;;13.73;100.00
10348;BME280;5220;43.192;23.284;2023-05-12T00:10:27;97185.94;;;13.85;100.00
10348;BME280;5220;43.192;23.284;2023-05-12T00:12:54;97190.66;;;13.91;100.00
10348;BME280;5220;43.192;23.284;2023-05-12T00:15:21;97187.91;;;13.92;100.00
10348;BME280;5220;43.192;23.284;2023-05-12T00:17:48;97178.28;;;13.93;100.00
10348;BME280;5220;43.192;23.284;2023-05-12T00:20:16;97186.31;;;14.01;100.00
10348;BME280;5220;43.192;23.284;2023-05-12T00:22:43;97189.44;;;13.95;100.00
10348;BME280;5220;43.192;23.284;2023-05-12T00:25:10;97184.66;;;14.00;100.00
10348;BME280;5220;43.192;23.284;2023-05-12T00:27:38;97177.78;;;13.99;100.00
10348;BME280;5220;43.192;23.284;2023-05-12T00:30:06;97185.44;;;13.91;100.00
10348;BME280;5220;43.192;23.284;2023-05-12T00:32:33;97186.56;;;13.98;100.00
10348;BME280;5220;43.192;23.284;2023-05-12T00:34:59;97182.75;;;13.81;100.00
10348;BME280;5220;43.192;23.284;2023-05-12T00:37:26;97185.53;;;13.89;100.00
10348;BME280;5220;43.192;23.284;2023-05-12T00:39:53;97192.38;;;13.81;100.00
10348;BME280;5220;43.192;23.284;2023-05-12T00:42:20;97187.53;;;13.33;100.00
10348;BME280;5220;43.192;23.284;2023-05-12T00:44:48;97187.63;;;13.43;100.00
10348;BME280;5220;43.192;23.284;2023-05-12T00:47:15;97185.69;;;13.56;100.00
10348;BME280;5220;43.192;23.284;2023-05-12T00:49:42;97189.59;;;13.62;100.00
10348;BME280;5220;43.192;23.284;2023-05-12T00:52:09;97188.66;;;13.52;100.00
10348;BME280;5220;43.192;23.284;2023-05-12T00:54:36;97187.31;;;13.68;100.00
10348;BME280;5220;43.192;23.284;2023-05-12T00:57:04;97193.50;;;13.35;100.00
10348;BME280;5220;43.192;23.284;2023-05-12T00:59:31;97187.72;;;13.53;100.00
10348;BME280;5220;43.192;23.284;2023-05-12T01:01:59;97190.31;;;13.32;100.00
10348;BME280;5220;43.192;23.284;2023-05-12T01:04:26;97188.34;;;13.45;100.00
10348;BME280;5220;43.192;23.284;2023-05-12T01:06:56;97194.47;;;13.66;100.00
10348;BME280;5220;43.192;23.284;2023-05-12T01:09:24;97196.25;;;13.66;100.00
10348;BME280;5220;43.192;23.284;2023-05-12T01:11:51;97188.84;;;13.71;100.00
10348;BME280;5220;43.192;23.284;2023-05-12T01:14:17;97190.69;;;13.80;100.00
10348;BME280;5220;43.192;23.284;2023-05-12T01:16:49;97198.53;;;13.80;100.00
10348;BME280;5220;43.192;23.284;2023-05-12T01:19:39;97196.91;;;13.79;100.00
10348;BME280;5220;43.192;23.284;2023-05-12T01:22:07;97187.13;;;13.81;100.00
10348;BME280;5220;43.192;23.284;2023-05-12T01:24:41;97192.72;;;13.76;100.00
10348;BME280;5220;43.192;23.284;2023-05-12T01:27:09;97196.31;;;13.75;100.00
10348;BME280;5220;43.192;23.284;2023-05-12T01:29:37;97188.16;;;13.58;100.00
10348;BME280;5220;43.192;23.284;2023-05-12T01:32:05;97197.53;;;13.71;100.00
10348;BME280;5220;43.192;23.284;2023-05-12T01:34:33;97201.06;;;13.81;100.00
10348;BME280;5220;43.192;23.284;2023-05-12T01:37:00;97199.84;;;13.85;100.00
10348;BME280;5220;43.192;23.284;2023-05-12T01:39:27;97201.75;;;13.83;100.00
10348;BME280;5220;43.192;23.284;2023-05-12T01:41:53;97201.25;;;13.89;100.00
10348;BME280;5220;43.192;23.284;2023-05-12T01:44:21;97194.13;;;13.91;100.00
10348;BME280;5220;43.192;23.284;2023-05-12T01:46:48;97197.69;;;13.90;100.00
10348;BME280;5220;43.192;23.284;2023-05-12T01:49:15;97200.16;;;13.92;100.00
10348;BME280;5220;43.192;23.284;2023-05-12T01:51:41;97197.69;;;13.90;100.00
10348;BME280;5220;43.192;23.284;2023-05-12T01:54:08;97197.09;;;13.87;100.00
10348;BME280;5220;43.192;23.284;2023-05-12T01:56:35;97198.50;;;13.91;100.00
10348;BME280;5220;43.192;23.284;2023-05-12T01:59:01;97199.34;;;13.91;100.00
10348;BME280;5220;43.192;23.284;2023-05-12T02:01:29;97194.38;;;13.88;100.00
10348;BME280;5220;43.192;23.284;2023-05-12T02:03:57;97195.31;;;13.87;100.00
10348;BME280;5220;43.192;23.284;2023-05-12T02:06:24;97194.38;;;13.88;100.00
10348;BME280;5220;43.192;23.284;2023-05-12T02:08:51;97199.47;;;13.90;100.00
10348;BME280;5220;43.192;23.284;2023-05-12T02:11:18;97192.97;;;13.73;100.00
10348;BME280;5220;43.192;23.284;2023-05-12T02:13:45;97192.44;;;13.70;100.00
10348;BME280;5220;43.192;23.284;2023-05-12T02:16:12;97193.47;;;13.78;100.00
10348;BME280;5220;43.192;23.284;2023-05-12T02:18:40;97197.47;;;13.82;100.00
10348;BME280;5220;43.192;23.284;2023-05-12T02:21:06;97197.34;;;13.84;100.00
10348;BME280;5220;43.192;23.284;2023-05-12T02:23:33;97203.44;;;13.73;100.00
10348;BME280;5220;43.192;23.284;2023-05-12T02:26:00;97197.47;;;13.82;100.00
10348;BME280;5220;43.192;23.284;2023-05-12T02:28:26;97193.78;;;13.85;100.00
10348;BME280;5220;43.192;23.284;2023-05-12T02:30:53;97197.41;;;13.73;100.00
10348;BME280;5220;43.192;23.284;2023-05-12T02:33:20;97200.22;;;13.81;100.00
10348;BME280;5220;43.192;23.284;2023-05-12T02:35:48;97195.69;;;13.83;100.00
10348;BME280;5220;43.192;23.284;2023-05-12T02:38:15;97206.03;;;13.84;100.00
10348;BME280;5220;43.192;23.284;2023-05-12T02:40:42;97193.31;;;13.80;100.00
10348;BME280;5220;43.192;23.284;2023-05-12T02:43:09;97196.75;;;13.80;100.00
10348;BME280;5220;43.192;23.284;2023-05-12T02:45:36;97195.09;;;13.79;100.00
10348;BME280;5220;43.192;23.284;2023-05-12T02:48:03;97202.63;;;13.73;100.00
10348;BME280;5220;43.192;23.284;2023-05-12T02:50:30;97199.19;;;13.72;100.00
10348;BME280;5220;43.192;23.284;2023-05-12T02:52:58;97200.56;;;13.76;100.00
10348;BME280;5220;43.192;23.284;2023-05-12T02:55:25;97199.78;;;13.76;100.00
10348;BME280;5220;43.192;23.284;2023-05-12T02:57:52;97207.47;;;13.77;100.00
10348;BME280;5220;43.192;23.284;2023-05-12T03:00:19;97204.88;;;13.77;100.00
10348;BME280;5220;43.192;23.284;2023-05-12T03:02:45;97206.06;;;13.73;100.00
10348;BME280;5220;43.192;23.284;2023-05-12T03:05:12;97201.91;;;13.71;100.00
10348;BME280;5220;43.192;23.284;2023-05-12T03:07:39;97195.59;;;13.73;100.00
10348;BME280;5220;43.192;23.284;2023-05-12T03:10:08;97207.63;;;13.76;100.00
10348;BME280;5220;43.192;23.284;2023-05-12T03:12:35;97209.66;;;13.72;100.00
10348;BME280;5220;43.192;23.284;2023-05-12T03:15:02;97210.84;;;13.68;100.00
10348;BME280;5220;43.192;23.284;2023-05-12T03:17:30;97218.34;;;13.62;100.00
10348;BME280;5220;43.192;23.284;2023-05-12T03:19:56;97215.16;;;13.58;100.00
10348;BME280;5220;43.192;23.284;2023-05-12T03:22:23;97223.22;;;13.66;100.00
10348;BME280;5220;43.192;23.284;2023-05-12T03:24:50;97216.88;;;13.37;100.00
10348;BME280;5220;43.192;23.284;2023-05-12T03:27:18;97217.91;;;13.57;100.00
10348;BME280;5220;43.192;23.284;2023-05-12T03:29:45;97216.44;;;13.64;100.00
10348;BME280;5220;43.192;23.284;2023-05-12T03:32:12;97228.56;;;13.65;100.00
10348;BME280;5220;43.192;23.284;2023-05-12T03:34:39;97224.41;;;13.62;100.00
10348;BME280;5220;43.192;23.284;2023-05-12T03:37:06;97228.94;;;13.60;100.00
10348;BME280;5220;43.192;23.284;2023-05-12T03:39:32;97230.22;;;13.66;100.00
10348;BME280;5220;43.192;23.284;2023-05-12T03:41:59;97233.44;;;13.69;100.00
10348;BME280;5220;43.192;23.284;2023-05-12T03:44:27;97236.66;;;13.62;100.00
10348;BME280;5220;43.192;23.284;2023-05-12T03:46:54;97241.88;;;13.62;100.00
10348;BME280;5220;43.192;23.284;2023-05-12T03:49:20;97243.06;;;13.69;100.00
10348;BME280;5220;43.192;23.284;2023-05-12T03:51:47;97237.13;;;13.67;100.00
10348;BME280;5220;43.192;23.284;2023-05-12T03:54:14;97237.69;;;13.70;100.00
10348;BME280;5220;43.192;23.284;2023-05-12T03:56:40;97246.13;;;13.74;100.00
10348;BME280;5220;43.192;23.284;2023-05-12T03:59:08;97250.75;;;13.70;100.00
10348;BME280;5220;43.192;23.284;2023-05-12T04:01:37;97243.63;;;13.72;100.00
10348;BME280;5220;43.192;23.284;2023-05-12T04:04:04;97244.13;;;13.66;100.00
10348;BME280;5220;43.192;23.284;2023-05-12T04:06:31;97240.78;;;13.64;100.00
10348;BME280;5220;43.192;23.284;2023-05-12T04:08:58;97253.66;;;13.56;100.00
10348;BME280;5220;43.192;23.284;2023-05-12T04:11:26;97249.63;;;13.63;100.00
10348;BME280;5220;43.192;23.284;2023-05-12T04:13:53;97237.03;;;13.57;100.00
10348;BME280;5220;43.192;23.284;2023-05-12T04:16:21;97242.56;;;13.64;100.00
10348;BME280;5220;43.192;23.284;2023-05-12T04:18:49;97253.38;;;13.70;100.00
10348;BME280;5220;43.192;23.284;2023-05-12T04:21:17;97251.47;;;13.72;100.00
10348;BME280;5220;43.192;23.284;2023-05-12T04:23:44;97261.69;;;13.75;100.00
10348;BME280;5220;43.192;23.284;2023-05-12T04:26:11;97265.94;;;13.76;100.00
10348;BME280;5220;43.192;23.284;2023-05-12T04:28:38;97261.47;;;13.67;100.00
10348;BME280;5220;43.192;23.284;2023-05-12T04:31:05;97258.34;;;13.73;100.00
10348;BME280;5220;43.192;23.284;2023-05-12T04:33:31;97255.28;;;13.68;100.00
10348;BME280;5220;43.192;23.284;2023-05-12T04:35:59;97270.28;;;13.66;100.00
10348;BME280;5220;43.192;23.284;2023-05-12T04:38:26;97263.28;;;13.67;100.00
10348;BME280;5220;43.192;23.284;2023-05-12T04:40:56;97271.91;;;13.67;100.00
10348;BME280;5220;43.192;23.284;2023-05-12T04:43:24;97268.59;;;13.65;100.00
10348;BME280;5220;43.192;23.284;2023-05-12T04:45:50;97258.66;;;13.59;100.00
10348;BME280;5220;43.192;23.284;2023-05-12T04:48:18;97277.41;;;13.64;100.00
10348;BME280;5220;43.192;23.284;2023-05-12T04:50:45;97268.22;;;13.16;100.00
10348;BME280;5220;43.192;23.284;2023-05-12T04:53:14;97279.25;;;13.30;100.00
10348;BME280;5220;43.192;23.284;2023-05-12T04:55:40;97279.34;;;12.95;100.00
10348;BME280;5220;43.192;23.284;2023-05-12T04:58:10;97277.72;;;13.17;100.00
10348;BME280;5220;43.192;23.284;2023-05-12T05:00:36;97276.97;;;12.92;100.00
10348;BME280;5220;43.192;23.284;2023-05-12T05:03:03;97281.84;;;12.75;100.00
10348;BME280;5220;43.192;23.284;2023-05-12T05:05:30;97288.25;;;12.82;100.00
10348;BME280;5220;43.192;23.284;2023-05-12T05:07:57;97284.34;;;12.87;100.00
10348;BME280;5220;43.192;23.284;2023-05-12T05:10:25;97287.19;;;12.84;100.00
10348;BME280;5220;43.192;23.284;2023-05-12T05:12:52;97278.53;;;13.06;100.00
10348;BME280;5220;43.192;23.284;2023-05-12T05:15:19;97284.69;;;12.94;100.00
10348;BME280;5220;43.192;23.284;2023-05-12T05:17:45;97288.75;;;12.98;100.00
10348;BME280;5220;43.192;23.284;2023-05-12T05:20:13;97279.75;;;13.13;100.00
10348;BME280;5220;43.192;23.284;2023-05-12T05:22:40;97289.09;;;13.27;100.00
10348;BME280;5220;43.192;23.284;2023-05-12T05:25:07;97285.66;;;13.37;100.00
10348;BME280;5220;43.192;23.284;2023-05-12T05:27:36;97289.06;;;13.49;100.00
10348;BME280;5220;43.192;23.284;2023-05-12T05:30:03;97289.41;;;13.56;100.00
10348;BME280;5220;43.192;23.284;2023-05-12T05:32:30;97285.03;;;13.56;100.00
10348;BME280;5220;43.192;23.284;2023-05-12T05:34:57;97286.47;;;13.60;100.00
10348;BME280;5220;43.192;23.284;2023-05-12T05:37:24;97296.66;;;13.63;100.00
10348;BME280;5220;43.192;23.284;2023-05-12T05:39:51;97301.09;;;13.40;100.00
10348;BME280;5220;43.192;23.284;2023-05-12T05:42:18;97299.78;;;13.57;100.00
10348;BME280;5220;43.192;23.284;2023-05-12T05:44:46;97305.09;;;13.56;100.00
10348;BME280;5220;43.192;23.284;2023-05-12T05:47:13;97297.19;;;13.24;100.00
10348;BME280;5220;43.192;23.284;2023-05-12T05:49:39;97299.06;;;13.00;100.00
10348;BME280;5220;43.192;23.284;2023-05-12T05:52:06;97299.91;;;13.11;100.00
10348;BME280;5220;43.192;23.284;2023-05-12T05:54:33;97292.78;;;13.35;100.00
10348;BME280;5220;43.192;23.284;2023-05-12T05:57:00;97309.88;;;13.51;100.00
10348;BME280;5220;43.192;23.284;2023-05-12T05:59:27;97307.59;;;13.57;100.00
10348;BME280;5220;43.192;23.284;2023-05-12T06:01:55;97307.13;;;13.63;100.00
10348;BME280;5220;43.192;23.284;2023-05-12T06:04:22;97314.22;;;13.72;100.00
10348;BME280;5220;43.192;23.284;2023-05-12T06:06:49;97320.84;;;13.76;100.00
10348;BME280;5220;43.192;23.284;2023-05-12T06:09:15;97323.22;;;13.79;100.00
10348;BME280;5220;43.192;23.284;2023-05-12T06:11:42;97327.91;;;13.76;100.00
10348;BME280;5220;43.192;23.284;2023-05-12T06:14:09;97328.34;;;13.81;100.00
10348;BME280;5220;43.192;23.284;2023-05-12T06:16:35;97331.56;;;13.84;100.00
10348;BME280;5220;43.192;23.284;2023-05-12T06:19:03;97334.41;;;13.70;100.00
10348;BME280;5220;43.192;23.284;2023-05-12T06:21:30;97339.13;;;13.22;100.00
10348;BME280;5220;43.192;23.284;2023-05-12T06:23:57;97331.97;;;13.24;100.00
10348;BME280;5220;43.192;23.284;2023-05-12T06:26:24;97329.72;;;13.53;100.00
10348;BME280;5220;43.192;23.284;2023-05-12T06:28:51;97335.53;;;13.57;100.00
10348;BME280;5220;43.192;23.284;2023-05-12T06:31:17;97336.94;;;13.61;100.00
10348;BME280;5220;43.192;23.284;2023-05-12T06:33:44;97343.50;;;13.33;100.00
10348;BME280;5220;43.192;23.284;2023-05-12T06:36:12;97346.13;;;13.44;100.00
10348;BME280;5220;43.192;23.284;2023-05-12T06:38:39;97343.03;;;13.50;100.00
10348;BME280;5220;43.192;23.284;2023-05-12T06:41:05;97345.25;;;13.55;100.00
10348;BME280;5220;43.192;23.284;2023-05-12T06:43:32;97352.97;;;13.67;100.00
10348;BME280;5220;43.192;23.284;2023-05-12T06:45:59;97352.72;;;13.70;100.00
10348;BME280;5220;43.192;23.284;2023-05-12T06:48:26;97354.75;;;13.78;100.00
10348;BME280;5220;43.192;23.284;2023-05-12T06:50:52;97355.97;;;13.63;100.00
10348;BME280;5220;43.192;23.284;2023-05-12T06:53:20;97352.03;;;13.68;100.00
10348;BME280;5220;43.192;23.284;2023-05-12T06:55:47;97360.69;;;13.69;100.00
10348;BME280;5220;43.192;23.284;2023-05-12T06:58:15;97363.06;;;13.61;100.00
10348;BME280;5220;43.192;23.284;2023-05-12T07:00:43;97359.63;;;13.71;100.00
10348;BME280;5220;43.192;23.284;2023-05-12T07:03:10;97363.06;;;13.72;100.00
10348;BME280;5220;43.192;23.284;2023-05-12T07:05:36;97363.91;;;13.72;100.00
10348;BME280;5220;43.192;23.284;2023-05-12T07:08:04;97362.00;;;13.74;100.00
10348;BME280;5220;43.192;23.284;2023-05-12T07:10:32;97365.44;;;13.75;100.00
10348;BME280;5220;43.192;23.284;2023-05-12T07:12:59;97372.00;;;13.69;100.00
10348;BME280;5220;43.192;23.284;2023-05-12T07:15:26;97367.72;;;13.68;100.00
10348;BME280;5220;43.192;23.284;2023-05-12T07:17:53;97371.84;;;13.71;100.00
10348;BME280;5220;43.192;23.284;2023-05-12T07:20:20;97372.47;;;13.63;100.00
10348;BME280;5220;43.192;23.284;2023-05-12T07:22:46;97374.38;;;13.61;100.00
10348;BME280;5220;43.192;23.284;2023-05-12T07:25:13;97376.72;;;13.64;100.00
10348;BME280;5220;43.192;23.284;2023-05-12T07:27:42;97380.09;;;13.44;100.00
10348;BME280;5220;43.192;23.284;2023-05-12T07:30:09;97371.78;;;13.50;100.00
10348;BME280;5220;43.192;23.284;2023-05-12T07:32:36;97378.06;;;13.48;100.00
10348;BME280;5220;43.192;23.284;2023-05-12T07:35:04;97375.81;;;13.43;100.00
10348;BME280;5220;43.192;23.284;2023-05-12T07:37:31;97371.88;;;13.15;100.00
10348;BME280;5220;43.192;23.284;2023-05-12T07:39:57;97372.00;;;13.25;100.00
10348;BME280;5220;43.192;23.284;2023-05-12T07:42:24;97382.38;;;13.03;100.00
10348;BME280;5220;43.192;23.284;2023-05-12T07:44:52;97373.56;;;12.81;100.00
10348;BME280;5220;43.192;23.284;2023-05-12T07:47:19;97382.28;;;13.04;100.00
10348;BME280;5220;43.192;23.284;2023-05-12T07:49:46;97377.16;;;12.91;100.00
10348;BME280;5220;43.192;23.284;2023-05-12T07:52:12;97382.88;;;13.08;100.00
10348;BME280;5220;43.192;23.284;2023-05-12T07:54:39;97380.16;;;12.98;100.00
10348;BME280;5220;43.192;23.284;2023-05-12T07:57:06;97379.34;;;13.09;100.00
10348;BME280;5220;43.192;23.284;2023-05-12T07:59:32;97384.34;;;13.12;100.00
10348;BME280;5220;43.192;23.284;2023-05-12T08:02:00;97383.88;;;13.18;100.00
10348;BME280;5220;43.192;23.284;2023-05-12T08:04:27;97386.13;;;13.22;100.00
10348;BME280;5220;43.192;23.284;2023-05-12T08:06:54;97397.59;;;12.98;100.00
10348;BME280;5220;43.192;23.284;2023-05-12T08:09:20;97393.31;;;13.08;100.00
10348;BME280;5220;43.192;23.284;2023-05-12T08:11:47;97392.19;;;13.23;100.00
10348;BME280;5220;43.192;23.284;2023-05-12T08:14:14;97389.72;;;13.32;100.00
10348;BME280;5220;43.192;23.284;2023-05-12T08:16:41;97397.19;;;13.37;100.00
10348;BME280;5220;43.192;23.284;2023-05-12T08:19:11;97391.13;;;13.36;100.00
10348;BME280;5220;43.192;23.284;2023-05-12T08:21:38;97393.38;;;13.52;100.00
10348;BME280;5220;43.192;23.284;2023-05-12T08:24:04;97395.16;;;13.52;100.00
10348;BME280;5220;43.192;23.284;2023-05-12T08:26:31;97390.16;;;13.48;100.00
10348;BME280;5220;43.192;23.284;2023-05-12T08:28:58;97403.69;;;13.20;100.00
10348;BME280;5220;43.192;23.284;2023-05-12T08:31:25;97407.00;;;13.11;100.00
10348;BME280;5220;43.192;23.284;2023-05-12T08:33:51;97410.13;;;13.27;100.00
10348;BME280;5220;43.192;23.284;2023-05-12T08:36:20;97410.84;;;13.40;100.00
10348;BME280;5220;43.192;23.284;2023-05-12T08:38:46;97413.47;;;13.40;100.00
10348;BME280;5220;43.192;23.284;2023-05-12T08:41:15;97412.16;;;13.35;100.00
10348;BME280;5220;43.192;23.284;2023-05-12T08:43:49;97430.78;;;13.19;100.00
10348;BME280;5220;43.192;23.284;2023-05-12T08:46:16;97425.09;;;12.79;100.00
10348;BME280;5220;43.192;23.284;2023-05-12T08:48:45;97418.44;;;13.21;100.00
10348;BME280;5220;43.192;23.284;2023-05-12T08:51:12;97421.41;;;13.17;100.00
10348;BME280;5220;43.192;23.284;2023-05-12T08:53:41;97422.41;;;13.03;100.00
10348;BME280;5220;43.192;23.284;2023-05-12T08:56:08;97422.69;;;12.76;100.00
10348;BME280;5220;43.192;23.284;2023-05-12T08:58:36;97429.09;;;12.83;100.00
10348;BME280;5220;43.192;23.284;2023-05-12T09:01:03;97428.56;;;12.91;100.00
10348;BME280;5220;43.192;23.284;2023-05-12T09:03:32;97416.19;;;12.82;100.00
10348;BME280;5220;43.192;23.284;2023-05-12T09:06:00;97420.06;;;13.11;100.00
10348;BME280;5220;43.192;23.284;2023-05-12T09:08:29;97418.31;;;13.23;100.00
10348;BME280;5220;43.192;23.284;2023-05-12T09:10:59;97419.50;;;13.19;100.00
10348;BME280;5220;43.192;23.284;2023-05-12T09:13:29;97426.03;;;13.24;100.00
10348;BME280;5220;43.192;23.284;2023-05-12T09:16:00;97418.09;;;13.26;100.00
10348;BME280;5220;43.192;23.284;2023-05-12T09:18:37;97420.09;;;13.33;100.00
10348;BME280;5220;43.192;23.284;2023-05-12T09:21:09;97422.47;;;13.25;100.00
10348;BME280;5220;43.192;23.284;2023-05-12T09:23:36;97423.09;;;13.05;100.00
10348;BME280;5220;43.192;23.284;2023-05-12T09:26:04;97422.81;;;13.10;100.00
10348;BME280;5220;43.192;23.284;2023-05-12T09:28:35;97414.25;;;12.73;100.00
10348;BME280;5220;43.192;23.284;2023-05-12T09:31:13;97411.34;;;12.88;100.00
10348;BME280;5220;43.192;23.284;2023-05-12T09:33:40;97419.84;;;13.14;100.00
10348;BME280;5220;43.192;23.284;2023-05-12T09:36:07;97422.34;;;13.16;100.00
10348;BME280;5220;43.192;23.284;2023-05-12T09:38:34;97419.88;;;13.02;100.00
10348;BME280;5220;43.192;23.284;2023-05-12T09:41:00;97419.03;;;13.14;100.00
10348;BME280;5220;43.192;23.284;2023-05-12T09:43:29;97411.53;;;13.09;100.00
10348;BME280;5220;43.192;23.284;2023-05-12T09:45:55;97417.72;;;12.84;100.00
10348;BME280;5220;43.192;23.284;2023-05-12T09:48:22;97415.44;;;12.80;100.00
10348;BME280;5220;43.192;23.284;2023-05-12T09:50:50;97414.66;;;13.02;100.00
10348;BME280;5220;43.192;23.284;2023-05-12T09:53:18;97413.88;;;13.01;100.00
10348;BME280;5220;43.192;23.284;2023-05-12T09:55:47;97422.47;;;13.25;100.00
10348;BME280;5220;43.192;23.284;2023-05-12T09:58:16;97418.19;;;13.24;100.00
10348;BME280;5220;43.192;23.284;2023-05-12T10:00:45;97425.19;;;13.24;100.00
10348;BME280;5220;43.192;23.284;2023-05-12T10:03:13;97420.91;;;13.12;100.00
10348;BME280;5220;43.192;23.284;2023-05-12T10:05:45;97418.91;;;13.15;100.00
10348;BME280;5220;43.192;23.284;2023-05-12T10:08:19;97418.56;;;13.20;100.00
10348;BME280;5220;43.192;23.284;2023-05-12T10:10:47;97424.50;;;13.33;100.00
10348;BME280;5220;43.192;23.284;2023-05-12T10:13:16;97420.00;;;13.35;100.00
10348;BME280;5220;43.192;23.284;2023-05-12T10:15:45;97420.22;;;13.32;100.00
10348;BME280;5220;43.192;23.284;2023-05-12T10:18:14;97423.09;;;13.40;100.00
10348;BME280;5220;43.192;23.284;2023-05-12T10:20:42;97428.44;;;13.38;100.00
10348;BME280;5220;43.192;23.284;2023-05-12T10:23:11;97428.09;;;13.54;100.00
10348;BME280;5220;43.192;23.284;2023-05-12T10:25:40;97422.25;;;13.62;100.00
10348;BME280;5220;43.192;23.284;2023-05-12T10:28:07;97422.25;;;13.51;100.00
10348;BME280;5220;43.192;23.284;2023-05-12T10:30:34;97426.66;;;13.50;100.00
10348;BME280;5220;43.192;23.284;2023-05-12T10:33:03;97416.09;;;13.63;100.00
10348;BME280;5220;43.192;23.284;2023-05-12T10:35:33;97421.66;;;13.69;100.00
10348;BME280;5220;43.192;23.284;2023-05-12T10:38:00;97418.34;;;13.56;100.00
10348;BME280;5220;43.192;23.284;2023-05-12T10:40:28;97429.00;;;13.42;100.00
10348;BME280;5220;43.192;23.284;2023-05-12T10:42:57;97424.13;;;13.26;100.00
10348;BME280;5220;43.192;23.284;2023-05-12T10:45:25;97427.09;;;13.11;100.00
10348;BME280;5220;43.192;23.284;2023-05-12T10:47:52;97428.91;;;13.32;100.00
10348;BME280;5220;43.192;23.284;2023-05-12T10:50:30;97435.19;;;13.52;100.00
10348;BME280;5220;43.192;23.284;2023-05-12T10:52:57;97434.84;;;12.88;100.00
10348;BME280;5220;43.192;23.284;2023-05-12T10:55:33;97432.25;;;13.00;100.00
10348;BME280;5220;43.192;23.284;2023-05-12T10:58:06;97439.84;;;13.03;100.00
10348;BME280;5220;43.192;23.284;2023-05-12T11:00:43;97440.88;;;12.89;100.00
10348;BME280;5220;43.192;23.284;2023-05-12T11:03:12;97448.75;;;12.65;100.00
10348;BME280;5220;43.192;23.284;2023-05-12T11:05:40;97446.38;;;12.73;100.00
10348;BME280;5220;43.192;23.284;2023-05-12T11:08:08;97443.47;;;12.89;100.00
10348;BME280;5220;43.192;23.284;2023-05-12T11:10:35;97445.69;;;13.06;100.00
10348;BME280;5220;43.192;23.284;2023-05-12T11:13:03;97450.31;;;12.44;100.00
10348;BME280;5220;43.192;23.284;2023-05-12T11:15:30;97452.69;;;12.47;100.00
10348;BME280;5220;43.192;23.284;2023-05-12T11:17:57;97442.41;;;12.33;100.00
10348;BME280;5220;43.192;23.284;2023-05-12T11:20:27;97446.38;;;12.38;100.00
10348;BME280;5220;43.192;23.284;2023-05-12T11:22:56;97450.16;;;11.98;100.00
10348;BME280;5220;43.192;23.284;2023-05-12T11:25:25;97435.91;;;12.15;100.00
10348;BME280;5220;43.192;23.284;2023-05-12T11:27:53;97437.84;;;12.24;100.00
10348;BME280;5220;43.192;23.284;2023-05-12T11:30:20;97441.97;;;12.15;100.00
10348;BME280;5220;43.192;23.284;2023-05-12T11:32:47;97442.63;;;12.30;100.00
10348;BME280;5220;43.192;23.284;2023-05-12T11:35:15;97455.25;;;12.60;100.00
10348;BME280;5220;43.192;23.284;2023-05-12T11:37:43;97444.31;;;12.55;100.00
10348;BME280;5220;43.192;23.284;2023-05-12T11:40:19;97431.31;;;12.66;100.00
10348;BME280;5220;43.192;23.284;2023-05-12T11:42:49;97439.44;;;12.50;100.00
10348;BME280;5220;43.192;23.284;2023-05-12T11:45:19;97445.31;;;12.41;100.00
10348;BME280;5220;43.192;23.284;2023-05-12T11:47:47;97450.41;;;12.43;100.00
10348;BME280;5220;43.192;23.284;2023-05-12T11:50:22;97451.63;;;12.50;100.00
10348;BME280;5220;43.192;23.284;2023-05-12T11:52:50;97452.19;;;12.66;100.00
10348;BME280;5220;43.192;23.284;2023-05-12T11:55:23;97456.34;;;12.68;100.00
10348;BME280;5220;43.192;23.284;2023-05-12T11:57:58;97452.16;;;12.89;100.00
10348;BME280;5220;43.192;23.284;2023-05-12T12:00:27;97453.44;;;12.84;100.00
10348;BME280;5220;43.192;23.284;2023-05-12T12:03:08;97449.88;;;12.50;100.00
10348;BME280;5220;43.192;23.284;2023-05-12T12:05:36;97439.84;;;12.68;100.00
10348;BME280;5220;43.192;23.284;2023-05-12T12:08:05;97444.44;;;12.53;100.00
10348;BME280;5220;43.192;23.284;2023-05-12T12:10:35;97442.00;;;12.74;100.00
10348;BME280;5220;43.192;23.284;2023-05-12T12:13:02;97448.50;;;12.92;100.00
10348;BME280;5220;43.192;23.284;2023-05-12T12:15:29;97440.19;;;12.39;100.00
10348;BME280;5220;43.192;23.284;2023-05-12T12:17:57;97442.28;;;12.23;100.00
10348;BME280;5220;43.192;23.284;2023-05-12T12:20:24;97444.25;;;12.20;100.00
10348;BME280;5220;43.192;23.284;2023-05-12T12:22:51;97451.94;;;12.58;100.00
10348;BME280;5220;43.192;23.284;2023-05-12T12:25:19;97447.75;;;12.55;100.00
10348;BME280;5220;43.192;23.284;2023-05-12T12:27:47;97451.94;;;12.58;100.00
10348;BME280;5220;43.192;23.284;2023-05-12T12:30:14;97447.13;;;12.75;100.00
10348;BME280;5220;43.192;23.284;2023-05-12T12:32:43;97443.56;;;13.11;100.00
10348;BME280;5220;43.192;23.284;2023-05-12T12:35:10;97449.75;;;12.86;100.00
10348;BME280;5220;43.192;23.284;2023-05-12T12:37:38;97443.91;;;13.07;100.00
10348;BME280;5220;43.192;23.284;2023-05-12T12:40:06;97448.63;;;13.02;100.00
10348;BME280;5220;43.192;23.284;2023-05-12T12:42:35;97447.25;;;13.09;100.00
10348;BME280;5220;43.192;23.284;2023-05-12T12:45:06;97453.81;;;12.90;100.00
10348;BME280;5220;43.192;23.284;2023-05-12T12:47:35;97456.13;;;13.06;100.00
10348;BME280;5220;43.192;23.284;2023-05-12T12:50:02;97452.16;;;13.13;100.00
10348;BME280;5220;43.192;23.284;2023-05-12T12:52:29;97454.22;;;12.97;100.00